Balsa 91 — 3FTK7 — position and weather

sailwx.info

Track history (hours):
 
Tides and Currents Weather Stations Pressure Air Temp Water Temp Dewpoint Dewpoint Depression Visibility Wind Speed Wind Dir Waves Ship Positions

Balsa 91

Last reported at 2018-Jun-18 17:20 UTC. Time now 2018-Jun-21 11:52 UTC.
Position S 33°02' W 071°37'.

Length 106 m; draft 4 m.

Type: Cargo ship. MMSI: 371895000.

Date/timePositionNaut miles runAvg speedWind from/ knotsBaromVisibWave heightAir tempDewpointWater temp
2018-Jun-18 17:20S 33°02' W 071°37'0 0.0
2018-Jun-18 12:17S 33°02' W 071°37'0 0.0
2018-Jun-17 19:17S 33°02' W 071°37'0 0.0
2018-Jun-17 18:59S 33°02' W 071°37'0 0.0
2018-Jun-17 18:26S 33°02' W 071°37'0 0.0
2018-Jun-17 17:59S 33°02' W 071°37'0 0.0
2018-Jun-17 17:29S 33°02' W 071°37'0 0.0
2018-Jun-17 16:56S 33°02' W 071°37'0 0.0
2018-Jun-17 16:29S 33°02' W 071°37'0 0.0
2018-Jun-17 15:59S 33°02' W 071°37'0 0.0
2018-Jun-17 15:29S 33°02' W 071°37'0 0.0
2018-Jun-17 14:59S 33°02' W 071°37'0 0.0
2018-Jun-17 14:29S 33°02' W 071°37'0 0.0
2018-Jun-17 13:59S 33°02' W 071°37'0 0.0
2018-Jun-17 13:26S 33°02' W 071°37'0 0.0
2018-Jun-17 12:59S 33°02' W 071°37'0 0.0
2018-Jun-17 12:11S 33°02' W 071°37'0 0.0
2018-Jun-17 11:53S 33°02' W 071°37'0 0.0
2018-Jun-16 17:56S 33°02' W 071°37'1 0.0
2018-Jun-14 14:34S 33°02' W 071°37'0 3.6
2018-Jun-14 14:30S 33°02' W 071°36'1 0.1
2018-Jun-14 00:46S 33°01' W 071°35'0 0.2
2018-Jun-14 00:24S 33°01' W 071°35'1 2.6
2018-Jun-13 23:59S 33°01' W 071°36'2 5.1
2018-Jun-13 23:30S 32°59' W 071°38'510.2
2018-Jun-13 23:00S 32°54' W 071°40'5 9.8
2018-Jun-13 22:30S 32°50' W 071°42'5 9.5
2018-Jun-13 22:00S 32°45' W 071°44'  
Track history (hours):
 
Tides and Currents Weather Stations Pressure Air Temp Water Temp Dewpoint Dewpoint Depression Visibility Wind Speed Wind Dir Waves Ship Positions

Balsa 91

Last reported at 2018-Jun-18 17:20 UTC. Time now 2018-Jun-21 11:52 UTC.
Position S 33°02' W 071°37'.

Length 106 m; draft 4 m.

Type: Cargo ship. MMSI: 371895000.

Date/timePositionNaut miles runAvg speedWind from/ knotsBaromVisibWave heightAir tempDewpointWater temp
2018-Jun-18 17:20S 33°02' W 071°37'0 0.0
2018-Jun-18 12:17S 33°02' W 071°37'0 0.0
2018-Jun-17 19:17S 33°02' W 071°37'0 0.0
2018-Jun-17 18:59S 33°02' W 071°37'0 0.0
2018-Jun-17 18:26S 33°02' W 071°37'0 0.0
2018-Jun-17 17:59S 33°02' W 071°37'0 0.0
2018-Jun-17 17:29S 33°02' W 071°37'0 0.0
2018-Jun-17 16:56S 33°02' W 071°37'0 0.0
2018-Jun-17 16:29S 33°02' W 071°37'0 0.0
2018-Jun-17 15:59S 33°02' W 071°37'0 0.0
2018-Jun-17 15:29S 33°02' W 071°37'0 0.0
2018-Jun-17 14:59S 33°02' W 071°37'0 0.0
2018-Jun-17 14:29S 33°02' W 071°37'0 0.0
2018-Jun-17 13:59S 33°02' W 071°37'0 0.0
2018-Jun-17 13:26S 33°02' W 071°37'0 0.0
2018-Jun-17 12:59S 33°02' W 071°37'0 0.0
2018-Jun-17 12:11S 33°02' W 071°37'0 0.0
2018-Jun-17 11:53S 33°02' W 071°37'0 0.0
2018-Jun-16 17:56S 33°02' W 071°37'1 0.0
2018-Jun-14 14:34S 33°02' W 071°37'0 3.6
2018-Jun-14 14:30S 33°02' W 071°36'1 0.1
2018-Jun-14 00:46S 33°01' W 071°35'0 0.2
2018-Jun-14 00:24S 33°01' W 071°35'1 2.6
2018-Jun-13 23:59S 33°01' W 071°36'2 5.1
2018-Jun-13 23:30S 32°59' W 071°38'510.2
2018-Jun-13 23:00S 32°54' W 071°40'5 9.8
2018-Jun-13 22:30S 32°50' W 071°42'5 9.5
2018-Jun-13 22:00S 32°45' W 071°44'  

Dump ship's entire track history